sensor_id;sensor_type;location;lat;lon;timestamp;temperature;humidity
8527;DHT22;4301;48.362;8.478;2023-04-01T00:01:22;6.20;99.90
8527;DHT22;4301;48.362;8.478;2023-04-01T00:03:48;6.20;99.90
8527;DHT22;4301;48.362;8.478;2023-04-01T00:06:16;6.20;99.90
8527;DHT22;4301;48.362;8.478;2023-04-01T00:08:44;6.20;99.90
8527;DHT22;4301;48.362;8.478;2023-04-01T00:11:11;6.20;99.90
8527;DHT22;4301;48.362;8.478;2023-04-01T00:13:39;6.20;99.90
8527;DHT22;4301;48.362;8.478;2023-04-01T00:16:06;6.20;99.90
8527;DHT22;4301;48.362;8.478;2023-04-01T00:18:33;6.20;99.90
8527;DHT22;4301;48.362;8.478;2023-04-01T00:21:01;6.20;99.90
8527;DHT22;4301;48.362;8.478;2023-04-01T00:23:28;6.20;99.90
8527;DHT22;4301;48.362;8.478;2023-04-01T00:25:54;6.20;99.90
8527;DHT22;4301;48.362;8.478;2023-04-01T00:28:21;6.20;99.90
8527;DHT22;4301;48.362;8.478;2023-04-01T00:30:50;6.20;99.90
8527;DHT22;4301;48.362;8.478;2023-04-01T00:33:16;6.10;99.90
8527;DHT22;4301;48.362;8.478;2023-04-01T00:35:44;6.10;99.90
8527;DHT22;4301;48.362;8.478;2023-04-01T00:38:11;6.00;99.90
8527;DHT22;4301;48.362;8.478;2023-04-01T00:40:40;6.00;99.90
8527;DHT22;4301;48.362;8.478;2023-04-01T00:43:12;6.00;99.90
8527;DHT22;4301;48.362;8.478;2023-04-01T00:45:40;5.90;99.90
8527;DHT22;4301;48.362;8.478;2023-04-01T00:48:12;5.90;99.90
8527;DHT22;4301;48.362;8.478;2023-04-01T00:50:42;5.90;99.90
8527;DHT22;4301;48.362;8.478;2023-04-01T00:53:11;5.80;99.90
8527;DHT22;4301;48.362;8.478;2023-04-01T00:55:43;5.80;99.90
8527;DHT22;4301;48.362;8.478;2023-04-01T00:58:15;5.70;99.90
8527;DHT22;4301;48.362;8.478;2023-04-01T01:00:45;5.70;99.90
8527;DHT22;4301;48.362;8.478;2023-04-01T01:03:14;5.70;99.90
8527;DHT22;4301;48.362;8.478;2023-04-01T01:06:02;5.70;99.90
8527;DHT22;4301;48.362;8.478;2023-04-01T01:08:49;5.70;99.90
8527;DHT22;4301;48.362;8.478;2023-04-01T01:11:25;5.70;99.90
8527;DHT22;4301;48.362;8.478;2023-04-01T01:14:00;5.70;99.90
8527;DHT22;4301;48.362;8.478;2023-04-01T01:16:30;5.70;99.90
8527;DHT22;4301;48.362;8.478;2023-04-01T01:19:08;5.70;99.90
8527;DHT22;4301;48.362;8.478;2023-04-01T01:21:58;5.70;99.90
8527;DHT22;4301;48.362;8.478;2023-04-01T01:24:43;5.60;99.90
8527;DHT22;4301;48.362;8.478;2023-04-01T01:27:16;5.60;99.90
8527;DHT22;4301;48.362;8.478;2023-04-01T01:30:21;5.60;99.90
8527;DHT22;4301;48.362;8.478;2023-04-01T01:33:35;5.60;99.90
8527;DHT22;4301;48.362;8.478;2023-04-01T01:36:08;5.60;99.90
8527;DHT22;4301;48.362;8.478;2023-04-01T01:38:37;5.60;99.90
8527;DHT22;4301;48.362;8.478;2023-04-01T01:41:07;5.70;99.90
8527;DHT22;4301;48.362;8.478;2023-04-01T01:43:38;5.60;99.90
8527;DHT22;4301;48.362;8.478;2023-04-01T01:46:09;5.60;99.90
8527;DHT22;4301;48.362;8.478;2023-04-01T01:48:37;5.50;99.90
8527;DHT22;4301;48.362;8.478;2023-04-01T01:51:06;5.50;99.90
8527;DHT22;4301;48.362;8.478;2023-04-01T01:53:33;5.50;99.90
8527;DHT22;4301;48.362;8.478;2023-04-01T01:56:01;5.40;99.90
8527;DHT22;4301;48.362;8.478;2023-04-01T01:58:30;5.40;99.90
8527;DHT22;4301;48.362;8.478;2023-04-01T02:01:00;5.40;99.90
8527;DHT22;4301;48.362;8.478;2023-04-01T02:03:30;5.30;99.90
8527;DHT22;4301;48.362;8.478;2023-04-01T02:06:00;5.30;99.90
8527;DHT22;4301;48.362;8.478;2023-04-01T02:08:33;5.20;99.90
8527;DHT22;4301;48.362;8.478;2023-04-01T02:11:04;5.20;99.90
8527;DHT22;4301;48.362;8.478;2023-04-01T02:13:36;5.20;99.90
8527;DHT22;4301;48.362;8.478;2023-04-01T02:16:10;5.10;99.90
8527;DHT22;4301;48.362;8.478;2023-04-01T02:18:38;5.10;99.90
8527;DHT22;4301;48.362;8.478;2023-04-01T02:21:07;5.10;99.90
8527;DHT22;4301;48.362;8.478;2023-04-01T02:23:37;5.10;99.90
8527;DHT22;4301;48.362;8.478;2023-04-01T02:26:06;5.10;99.90
8527;DHT22;4301;48.362;8.478;2023-04-01T02:28:34;5.00;99.90
8527;DHT22;4301;48.362;8.478;2023-04-01T02:31:03;5.00;99.90
8527;DHT22;4301;48.362;8.478;2023-04-01T02:33:31;5.10;99.90
8527;DHT22;4301;48.362;8.478;2023-04-01T02:35:59;5.10;99.90
8527;DHT22;4301;48.362;8.478;2023-04-01T02:38:26;5.10;99.90
8527;DHT22;4301;48.362;8.478;2023-04-01T02:40:59;5.10;99.90
8527;DHT22;4301;48.362;8.478;2023-04-01T02:43:27;5.10;99.90
8527;DHT22;4301;48.362;8.478;2023-04-01T02:45:54;5.10;99.90
8527;DHT22;4301;48.362;8.478;2023-04-01T02:48:21;5.10;99.90
8527;DHT22;4301;48.362;8.478;2023-04-01T02:50:48;5.10;99.90
8527;DHT22;4301;48.362;8.478;2023-04-01T02:53:15;5.10;99.90
8527;DHT22;4301;48.362;8.478;2023-04-01T02:55:42;5.10;99.90
8527;DHT22;4301;48.362;8.478;2023-04-01T02:58:11;5.20;99.90
8527;DHT22;4301;48.362;8.478;2023-04-01T03:00:38;5.20;99.90
8527;DHT22;4301;48.362;8.478;2023-04-01T03:03:05;5.20;99.90
8527;DHT22;4301;48.362;8.478;2023-04-01T03:05:32;5.20;99.90
8527;DHT22;4301;48.362;8.478;2023-04-01T03:07:59;5.20;99.90
8527;DHT22;4301;48.362;8.478;2023-04-01T03:10:26;5.30;99.90
8527;DHT22;4301;48.362;8.478;2023-04-01T03:12:53;5.30;99.90
8527;DHT22;4301;48.362;8.478;2023-04-01T03:15:21;5.30;99.90
8527;DHT22;4301;48.362;8.478;2023-04-01T03:17:48;5.30;99.90
8527;DHT22;4301;48.362;8.478;2023-04-01T03:20:15;5.30;99.90
8527;DHT22;4301;48.362;8.478;2023-04-01T03:22:42;5.40;99.90
8527;DHT22;4301;48.362;8.478;2023-04-01T03:25:09;5.40;99.90
8527;DHT22;4301;48.362;8.478;2023-04-01T03:27:36;5.40;99.90
8527;DHT22;4301;48.362;8.478;2023-04-01T03:30:05;5.40;99.90
8527;DHT22;4301;48.362;8.478;2023-04-01T03:32:33;5.50;99.90
8527;DHT22;4301;48.362;8.478;2023-04-01T03:35:00;5.50;99.90
8527;DHT22;4301;48.362;8.478;2023-04-01T03:37:27;5.50;99.90
8527;DHT22;4301;48.362;8.478;2023-04-01T03:39:54;5.50;99.90
8527;DHT22;4301;48.362;8.478;2023-04-01T03:42:21;5.50;99.90
8527;DHT22;4301;48.362;8.478;2023-04-01T03:44:48;5.50;99.90
8527;DHT22;4301;48.362;8.478;2023-04-01T03:47:15;5.50;99.90
8527;DHT22;4301;48.362;8.478;2023-04-01T03:49:43;5.60;99.90
8527;DHT22;4301;48.362;8.478;2023-04-01T03:52:10;5.60;99.90
8527;DHT22;4301;48.362;8.478;2023-04-01T03:54:38;5.60;99.90
8527;DHT22;4301;48.362;8.478;2023-04-01T03:57:05;5.60;99.90
8527;DHT22;4301;48.362;8.478;2023-04-01T03:59:32;5.60;99.90
8527;DHT22;4301;48.362;8.478;2023-04-01T04:01:59;5.60;99.90
8527;DHT22;4301;48.362;8.478;2023-04-01T04:04:26;5.60;99.90
8527;DHT22;4301;48.362;8.478;2023-04-01T04:06:55;5.50;99.90
8527;DHT22;4301;48.362;8.478;2023-04-01T04:09:22;5.50;99.90
8527;DHT22;4301;48.362;8.478;2023-04-01T04:11:49;5.50;99.90
8527;DHT22;4301;48.362;8.478;2023-04-01T04:14:16;5.40;99.90
8527;DHT22;4301;48.362;8.478;2023-04-01T04:16:43;5.40;99.90
8527;DHT22;4301;48.362;8.478;2023-04-01T04:19:10;5.40;99.90
8527;DHT22;4301;48.362;8.478;2023-04-01T04:21:37;5.40;99.90
8527;DHT22;4301;48.362;8.478;2023-04-01T04:24:07;5.40;99.90
8527;DHT22;4301;48.362;8.478;2023-04-01T04:26:35;5.40;99.90
8527;DHT22;4301;48.362;8.478;2023-04-01T04:29:02;5.40;99.90
8527;DHT22;4301;48.362;8.478;2023-04-01T04:31:29;5.40;99.90
8527;DHT22;4301;48.362;8.478;2023-04-01T04:33:56;5.40;99.90
8527;DHT22;4301;48.362;8.478;2023-04-01T04:36:23;5.40;99.90
8527;DHT22;4301;48.362;8.478;2023-04-01T04:38:50;5.40;99.90
8527;DHT22;4301;48.362;8.478;2023-04-01T04:41:18;5.40;99.90
8527;DHT22;4301;48.362;8.478;2023-04-01T04:43:51;5.40;99.90
8527;DHT22;4301;48.362;8.478;2023-04-01T04:46:19;5.40;99.90
8527;DHT22;4301;48.362;8.478;2023-04-01T04:48:46;5.40;99.90
8527;DHT22;4301;48.362;8.478;2023-04-01T04:51:14;5.40;99.90
8527;DHT22;4301;48.362;8.478;2023-04-01T04:53:42;5.40;99.90
8527;DHT22;4301;48.362;8.478;2023-04-01T04:56:09;5.40;99.90
8527;DHT22;4301;48.362;8.478;2023-04-01T04:58:38;5.40;99.90
8527;DHT22;4301;48.362;8.478;2023-04-01T05:01:07;5.40;99.90
8527;DHT22;4301;48.362;8.478;2023-04-01T05:03:34;5.40;99.90
8527;DHT22;4301;48.362;8.478;2023-04-01T05:06:01;5.40;99.90
8527;DHT22;4301;48.362;8.478;2023-04-01T05:08:28;5.40;99.90
8527;DHT22;4301;48.362;8.478;2023-04-01T05:10:55;5.40;99.90
8527;DHT22;4301;48.362;8.478;2023-04-01T05:13:22;5.40;99.90
8527;DHT22;4301;48.362;8.478;2023-04-01T05:15:50;5.40;99.90
8527;DHT22;4301;48.362;8.478;2023-04-01T05:18:17;5.40;99.90
8527;DHT22;4301;48.362;8.478;2023-04-01T05:20:47;5.40;99.90
8527;DHT22;4301;48.362;8.478;2023-04-01T05:23:15;5.40;99.90
8527;DHT22;4301;48.362;8.478;2023-04-01T05:25:42;5.40;99.90
8527;DHT22;4301;48.362;8.478;2023-04-01T05:28:09;5.40;99.90
8527;DHT22;4301;48.362;8.478;2023-04-01T05:30:35;5.40;99.90
8527;DHT22;4301;48.362;8.478;2023-04-01T05:33:04;5.40;99.90
8527;DHT22;4301;48.362;8.478;2023-04-01T05:35:31;5.50;99.90
8527;DHT22;4301;48.362;8.478;2023-04-01T05:37:57;5.50;99.90
8527;DHT22;4301;48.362;8.478;2023-04-01T05:40:24;5.50;99.90
8527;DHT22;4301;48.362;8.478;2023-04-01T05:42:51;5.50;99.90
8527;DHT22;4301;48.362;8.478;2023-04-01T05:45:18;5.50;99.90
8527;DHT22;4301;48.362;8.478;2023-04-01T05:47:45;5.50;99.90
8527;DHT22;4301;48.362;8.478;2023-04-01T05:50:14;5.50;99.90
8527;DHT22;4301;48.362;8.478;2023-04-01T05:52:41;5.50;99.90
8527;DHT22;4301;48.362;8.478;2023-04-01T05:55:08;5.50;99.90
8527;DHT22;4301;48.362;8.478;2023-04-01T05:57:35;5.50;99.90
8527;DHT22;4301;48.362;8.478;2023-04-01T06:00:03;5.50;99.90
8527;DHT22;4301;48.362;8.478;2023-04-01T06:02:30;5.50;99.90
8527;DHT22;4301;48.362;8.478;2023-04-01T06:05:03;5.50;99.90
8527;DHT22;4301;48.362;8.478;2023-04-01T06:07:39;5.50;99.90
8527;DHT22;4301;48.362;8.478;2023-04-01T06:10:12;5.60;99.90
8527;DHT22;4301;48.362;8.478;2023-04-01T06:12:48;5.60;99.90
8527;DHT22;4301;48.362;8.478;2023-04-01T06:15:29;5.60;99.90
8527;DHT22;4301;48.362;8.478;2023-04-01T06:24:16;5.60;99.90
8527;DHT22;4301;48.362;8.478;2023-04-01T06:26:49;5.60;99.90
8527;DHT22;4301;48.362;8.478;2023-04-01T06:32:27;5.70;99.90
8527;DHT22;4301;48.362;8.478;2023-04-01T06:35:20;5.70;99.90
8527;DHT22;4301;48.362;8.478;2023-04-01T06:38:10;5.70;99.90
8527;DHT22;4301;48.362;8.478;2023-04-01T06:40:55;5.70;99.90
8527;DHT22;4301;48.362;8.478;2023-04-01T06:43:29;5.70;99.90
8527;DHT22;4301;48.362;8.478;2023-04-01T06:46:04;5.70;99.90
8527;DHT22;4301;48.362;8.478;2023-04-01T06:48:44;5.80;99.90
8527;DHT22;4301;48.362;8.478;2023-04-01T06:51:25;5.80;99.90
8527;DHT22;4301;48.362;8.478;2023-04-01T06:53:58;5.80;99.90
8527;DHT22;4301;48.362;8.478;2023-04-01T06:56:29;5.80;99.90
8527;DHT22;4301;48.362;8.478;2023-04-01T06:58:59;5.80;99.90
8527;DHT22;4301;48.362;8.478;2023-04-01T07:01:32;5.80;99.90
8527;DHT22;4301;48.362;8.478;2023-04-01T07:04:04;5.90;99.90
8527;DHT22;4301;48.362;8.478;2023-04-01T07:06:36;5.90;99.90
8527;DHT22;4301;48.362;8.478;2023-04-01T07:09:09;5.90;99.90
8527;DHT22;4301;48.362;8.478;2023-04-01T07:11:38;5.90;99.90
8527;DHT22;4301;48.362;8.478;2023-04-01T07:14:13;6.00;99.90
8527;DHT22;4301;48.362;8.478;2023-04-01T07:16:46;5.90;99.90
8527;DHT22;4301;48.362;8.478;2023-04-01T07:19:18;5.90;99.90
8527;DHT22;4301;48.362;8.478;2023-04-01T07:21:49;5.90;99.90
8527;DHT22;4301;48.362;8.478;2023-04-01T07:24:22;5.90;99.90
8527;DHT22;4301;48.362;8.478;2023-04-01T07:26:53;5.90;99.90
8527;DHT22;4301;48.362;8.478;2023-04-01T07:29:21;5.90;99.90
8527;DHT22;4301;48.362;8.478;2023-04-01T07:32:02;5.90;99.90
8527;DHT22;4301;48.362;8.478;2023-04-01T07:34:38;5.90;99.90
8527;DHT22;4301;48.362;8.478;2023-04-01T07:37:12;6.00;99.90
8527;DHT22;4301;48.362;8.478;2023-04-01T07:39:48;5.90;99.90
8527;DHT22;4301;48.362;8.478;2023-04-01T07:42:26;5.90;99.90
8527;DHT22;4301;48.362;8.478;2023-04-01T07:45:01;5.90;99.90
8527;DHT22;4301;48.362;8.478;2023-04-01T07:47:47;5.90;99.90
8527;DHT22;4301;48.362;8.478;2023-04-01T07:50:23;5.90;99.90
8527;DHT22;4301;48.362;8.478;2023-04-01T07:53:02;5.90;99.90
8527;DHT22;4301;48.362;8.478;2023-04-01T07:55:37;5.90;99.90
8527;DHT22;4301;48.362;8.478;2023-04-01T07:58:12;5.90;99.90
8527;DHT22;4301;48.362;8.478;2023-04-01T08:00:47;5.80;99.90
8527;DHT22;4301;48.362;8.478;2023-04-01T08:03:38;5.90;99.90
8527;DHT22;4301;48.362;8.478;2023-04-01T08:06:14;5.90;99.90
8527;DHT22;4301;48.362;8.478;2023-04-01T08:08:57;5.80;99.90
8527;DHT22;4301;48.362;8.478;2023-04-01T08:11:39;5.90;99.90
8527;DHT22;4301;48.362;8.478;2023-04-01T08:14:17;6.00;99.90
8527;DHT22;4301;48.362;8.478;2023-04-01T08:16:52;6.00;99.90
8527;DHT22;4301;48.362;8.478;2023-04-01T08:19:34;6.00;99.90
8527;DHT22;4301;48.362;8.478;2023-04-01T08:22:11;6.10;99.90
8527;DHT22;4301;48.362;8.478;2023-04-01T08:24:45;6.10;99.90
8527;DHT22;4301;48.362;8.478;2023-04-01T08:27:19;6.10;99.90
8527;DHT22;4301;48.362;8.478;2023-04-01T08:29:55;6.20;99.90
8527;DHT22;4301;48.362;8.478;2023-04-01T08:32:26;6.20;99.90
8527;DHT22;4301;48.362;8.478;2023-04-01T08:35:01;6.20;99.90
8527;DHT22;4301;48.362;8.478;2023-04-01T08:37:38;6.10;99.90
8527;DHT22;4301;48.362;8.478;2023-04-01T08:40:24;6.10;99.90
8527;DHT22;4301;48.362;8.478;2023-04-01T08:43:01;6.20;99.90
8527;DHT22;4301;48.362;8.478;2023-04-01T08:49:07;6.20;99.90
8527;DHT22;4301;48.362;8.478;2023-04-01T08:54:46;6.20;99.90
8527;DHT22;4301;48.362;8.478;2023-04-01T08:57:20;6.30;99.90
8527;DHT22;4301;48.362;8.478;2023-04-01T08:59:59;6.30;99.90
8527;DHT22;4301;48.362;8.478;2023-04-01T09:02:53;6.30;99.90
8527;DHT22;4301;48.362;8.478;2023-04-01T09:08:36;6.40;99.90
8527;DHT22;4301;48.362;8.478;2023-04-01T09:11:16;6.40;99.90
8527;DHT22;4301;48.362;8.478;2023-04-01T09:13:56;6.40;99.90
8527;DHT22;4301;48.362;8.478;2023-04-01T09:19:27;6.40;99.90
8527;DHT22;4301;48.362;8.478;2023-04-01T09:22:25;6.30;99.90
8527;DHT22;4301;48.362;8.478;2023-04-01T09:28:07;6.30;99.90
8527;DHT22;4301;48.362;8.478;2023-04-01T09:30:48;6.40;99.90
8527;DHT22;4301;48.362;8.478;2023-04-01T09:36:44;6.30;99.90
8527;DHT22;4301;48.362;8.478;2023-04-01T09:39:33;6.30;99.90
8527;DHT22;4301;48.362;8.478;2023-04-01T09:44:59;6.20;99.90
8527;DHT22;4301;48.362;8.478;2023-04-01T09:47:48;6.20;99.90
8527;DHT22;4301;48.362;8.478;2023-04-01T09:50:34;6.20;99.90
8527;DHT22;4301;48.362;8.478;2023-04-01T09:53:15;6.20;99.90
8527;DHT22;4301;48.362;8.478;2023-04-01T09:56:17;6.20;99.90
8527;DHT22;4301;48.362;8.478;2023-04-01T10:02:33;6.30;99.90
8527;DHT22;4301;48.362;8.478;2023-04-01T10:11:52;6.40;99.90
8527;DHT22;4301;48.362;8.478;2023-04-01T10:14:42;6.40;99.90
8527;DHT22;4301;48.362;8.478;2023-04-01T10:17:49;6.40;99.90
8527;DHT22;4301;48.362;8.478;2023-04-01T10:23:50;6.40;99.90
8527;DHT22;4301;48.362;8.478;2023-04-01T10:30:13;6.30;99.90
8527;DHT22;4301;48.362;8.478;2023-04-01T10:36:15;6.40;99.90
8527;DHT22;4301;48.362;8.478;2023-04-01T10:45:18;6.20;99.90
8527;DHT22;4301;48.362;8.478;2023-04-01T10:51:10;6.20;99.90
8527;DHT22;4301;48.362;8.478;2023-04-01T10:53:46;6.20;99.90
8527;DHT22;4301;48.362;8.478;2023-04-01T10:56:39;6.30;99.90
8527;DHT22;4301;48.362;8.478;2023-04-01T10:59:32;6.40;99.90
8527;DHT22;4301;48.362;8.478;2023-04-01T11:11:48;6.40;99.90
8527;DHT22;4301;48.362;8.478;2023-04-01T11:17:58;6.70;99.90
8527;DHT22;4301;48.362;8.478;2023-04-01T11:20:49;6.80;99.90
8527;DHT22;4301;48.362;8.478;2023-04-01T11:23:34;6.80;99.90
8527;DHT22;4301;48.362;8.478;2023-04-01T11:26:09;6.80;99.90
8527;DHT22;4301;48.362;8.478;2023-04-01T11:28:55;6.80;99.90
8527;DHT22;4301;48.362;8.478;2023-04-01T11:31:35;6.80;99.90
8527;DHT22;4301;48.362;8.478;2023-04-01T11:34:16;6.70;99.90
8527;DHT22;4301;48.362;8.478;2023-04-01T11:36:54;6.70;99.90
8527;DHT22;4301;48.362;8.478;2023-04-01T11:39:31;6.70;99.90
8527;DHT22;4301;48.362;8.478;2023-04-01T11:42:07;6.60;99.90
8527;DHT22;4301;48.362;8.478;2023-04-01T11:44:43;6.60;99.90
8527;DHT22;4301;48.362;8.478;2023-04-01T11:47:22;6.60;99.90
8527;DHT22;4301;48.362;8.478;2023-04-01T11:50:01;6.50;99.90
8527;DHT22;4301;48.362;8.478;2023-04-01T11:52:58;6.40;99.90
8527;DHT22;4301;48.362;8.478;2023-04-01T11:55:43;6.40;99.90
8527;DHT22;4301;48.362;8.478;2023-04-01T11:58:31;6.50;99.90
8527;DHT22;4301;48.362;8.478;2023-04-01T12:01:16;6.40;99.90
8527;DHT22;4301;48.362;8.478;2023-04-01T12:07:10;6.40;99.90
8527;DHT22;4301;48.362;8.478;2023-04-01T12:09:46;6.50;99.90
8527;DHT22;4301;48.362;8.478;2023-04-01T12:12:23;6.40;99.90
8527;DHT22;4301;48.362;8.478;2023-04-01T12:15:01;6.60;99.90
8527;DHT22;4301;48.362;8.478;2023-04-01T12:17:37;6.60;99.90
8527;DHT22;4301;48.362;8.478;2023-04-01T12:20:33;6.70;99.90
8527;DHT22;4301;48.362;8.478;2023-04-01T12:23:18;6.90;99.90
8527;DHT22;4301;48.362;8.478;2023-04-01T12:26:17;6.80;99.90
8527;DHT22;4301;48.362;8.478;2023-04-01T12:28:57;6.80;99.90
8527;DHT22;4301;48.362;8.478;2023-04-01T12:31:34;6.80;99.90
8527;DHT22;4301;48.362;8.478;2023-04-01T12:37:10;7.10;99.90
8527;DHT22;4301;48.362;8.478;2023-04-01T12:39:58;7.40;99.90
8527;DHT22;4301;48.362;8.478;2023-04-01T12:42:38;7.40;99.90
8527;DHT22;4301;48.362;8.478;2023-04-01T12:45:25;7.20;96.50
8527;DHT22;4301;48.362;8.478;2023-04-01T12:48:17;7.20;99.90
8527;DHT22;4301;48.362;8.478;2023-04-01T12:51:03;7.10;99.90
8527;DHT22;4301;48.362;8.478;2023-04-01T12:53:43;7.20;99.90
8527;DHT22;4301;48.362;8.478;2023-04-01T12:56:18;7.30;99.90
8527;DHT22;4301;48.362;8.478;2023-04-01T13:02:00;7.40;98.10
8527;DHT22;4301;48.362;8.478;2023-04-01T13:05:01;7.30;99.90
8527;DHT22;4301;48.362;8.478;2023-04-01T13:07:50;7.30;99.90
8527;DHT22;4301;48.362;8.478;2023-04-01T13:10:36;7.30;99.90
8527;DHT22;4301;48.362;8.478;2023-04-01T13:13:25;7.50;99.90
8527;DHT22;4301;48.362;8.478;2023-04-01T13:16:01;7.30;99.90
8527;DHT22;4301;48.362;8.478;2023-04-01T13:18:38;7.20;99.90
8527;DHT22;4301;48.362;8.478;2023-04-01T13:21:14;7.30;99.90
8527;DHT22;4301;48.362;8.478;2023-04-01T13:23:54;7.30;99.90
8527;DHT22;4301;48.362;8.478;2023-04-01T13:26:29;7.40;99.90
8527;DHT22;4301;48.362;8.478;2023-04-01T13:29:04;7.40;99.90
8527;DHT22;4301;48.362;8.478;2023-04-01T13:31:38;7.40;99.90
8527;DHT22;4301;48.362;8.478;2023-04-01T13:34:22;7.30;99.90
8527;DHT22;4301;48.362;8.478;2023-04-01T13:37:04;7.40;99.90
8527;DHT22;4301;48.362;8.478;2023-04-01T13:39:41;7.40;99.90
8527;DHT22;4301;48.362;8.478;2023-04-01T13:42:23;7.50;99.90
8527;DHT22;4301;48.362;8.478;2023-04-01T13:44:55;7.40;96.30
8527;DHT22;4301;48.362;8.478;2023-04-01T13:50:59;7.40;99.90
8527;DHT22;4301;48.362;8.478;2023-04-01T13:53:50;7.30;99.90
8527;DHT22;4301;48.362;8.478;2023-04-01T13:56:32;7.40;99.90
8527;DHT22;4301;48.362;8.478;2023-04-01T13:59:18;7.60;99.90
8527;DHT22;4301;48.362;8.478;2023-04-01T14:01:54;7.50;99.90
8527;DHT22;4301;48.362;8.478;2023-04-01T14:04:39;7.40;99.90
8527;DHT22;4301;48.362;8.478;2023-04-01T14:07:18;7.40;99.90
8527;DHT22;4301;48.362;8.478;2023-04-01T14:09:54;7.40;99.90
8527;DHT22;4301;48.362;8.478;2023-04-01T14:12:31;7.40;99.90
8527;DHT22;4301;48.362;8.478;2023-04-01T14:18:13;7.40;99.90
8527;DHT22;4301;48.362;8.478;2023-04-01T14:20:49;7.50;99.90
8527;DHT22;4301;48.362;8.478;2023-04-01T14:23:36;7.50;99.90
8527;DHT22;4301;48.362;8.478;2023-04-01T14:29:00;7.60;99.90
8527;DHT22;4301;48.362;8.478;2023-04-01T14:31:44;7.70;99.90
8527;DHT22;4301;48.362;8.478;2023-04-01T14:34:28;7.80;99.90
8527;DHT22;4301;48.362;8.478;2023-04-01T14:37:11;7.70;99.90
8527;DHT22;4301;48.362;8.478;2023-04-01T14:39:56;7.70;99.90
8527;DHT22;4301;48.362;8.478;2023-04-01T14:42:41;7.70;99.90
8527;DHT22;4301;48.362;8.478;2023-04-01T14:45:34;7.70;99.90
8527;DHT22;4301;48.362;8.478;2023-04-01T14:48:16;7.60;99.90
8527;DHT22;4301;48.362;8.478;2023-04-01T14:50:46;7.70;99.90
8527;DHT22;4301;48.362;8.478;2023-04-01T14:53:26;7.70;99.90
8527;DHT22;4301;48.362;8.478;2023-04-01T14:55:55;7.70;99.90
8527;DHT22;4301;48.362;8.478;2023-04-01T14:58:24;7.70;99.90
8527;DHT22;4301;48.362;8.478;2023-04-01T15:01:07;7.80;99.90
8527;DHT22;4301;48.362;8.478;2023-04-01T15:03:45;7.60;75.30
8527;DHT22;4301;48.362;8.478;2023-04-01T15:06:41;7.70;99.90
8527;DHT22;4301;48.362;8.478;2023-04-01T15:09:21;7.70;99.90
8527;DHT22;4301;48.362;8.478;2023-04-01T15:11:59;7.70;99.90
8527;DHT22;4301;48.362;8.478;2023-04-01T15:14:54;7.50;99.90
8527;DHT22;4301;48.362;8.478;2023-04-01T15:17:42;7.50;99.90
8527;DHT22;4301;48.362;8.478;2023-04-01T15:20:36;7.70;99.90
8527;DHT22;4301;48.362;8.478;2023-04-01T15:23:19;7.80;95.20
8527;DHT22;4301;48.362;8.478;2023-04-01T15:26:11;7.80;93.90
8527;DHT22;4301;48.362;8.478;2023-04-01T15:28:43;7.90;99.90
8527;DHT22;4301;48.362;8.478;2023-04-01T15:31:16;8.00;99.90
8527;DHT22;4301;48.362;8.478;2023-04-01T15:33:55;7.90;96.10
8527;DHT22;4301;48.362;8.478;2023-04-01T15:36:36;7.90;82.50
8527;DHT22;4301;48.362;8.478;2023-04-01T15:39:13;7.90;49.40
8527;DHT22;4301;48.362;8.478;2023-04-01T15:41:48;7.90;93.30
8527;DHT22;4301;48.362;8.478;2023-04-01T15:44:45;7.70;92.20
8527;DHT22;4301;48.362;8.478;2023-04-01T15:47:35;7.70;99.90
8527;DHT22;4301;48.362;8.478;2023-04-01T15:50:26;7.70;99.90
8527;DHT22;4301;48.362;8.478;2023-04-01T15:53:07;7.70;99.90
8527;DHT22;4301;48.362;8.478;2023-04-01T15:55:39;7.70;99.90
8527;DHT22;4301;48.362;8.478;2023-04-01T15:58:26;7.70;99.90
8527;DHT22;4301;48.362;8.478;2023-04-01T16:01:02;7.70;99.90
8527;DHT22;4301;48.362;8.478;2023-04-01T16:03:39;7.70;99.90
8527;DHT22;4301;48.362;8.478;2023-04-01T16:06:35;7.80;99.90
8527;DHT22;4301;48.362;8.478;2023-04-01T16:09:19;7.70;99.90
8527;DHT22;4301;48.362;8.478;2023-04-01T16:11:54;7.80;99.90
8527;DHT22;4301;48.362;8.478;2023-04-01T16:14:35;7.90;99.90
8527;DHT22;4301;48.362;8.478;2023-04-01T16:17:26;7.90;99.90
8527;DHT22;4301;48.362;8.478;2023-04-01T16:20:01;7.80;99.90
8527;DHT22;4301;48.362;8.478;2023-04-01T16:22:33;7.70;99.90
8527;DHT22;4301;48.362;8.478;2023-04-01T16:25:17;7.70;99.90
8527;DHT22;4301;48.362;8.478;2023-04-01T16:27:50;7.80;99.90
8527;DHT22;4301;48.362;8.478;2023-04-01T16:30:32;7.80;99.90
8527;DHT22;4301;48.362;8.478;2023-04-01T16:33:04;7.70;99.90
8527;DHT22;4301;48.362;8.478;2023-04-01T16:35:41;7.80;99.90
8527;DHT22;4301;48.362;8.478;2023-04-01T16:38:18;7.80;99.90
8527;DHT22;4301;48.362;8.478;2023-04-01T16:40:52;7.80;99.90
8527;DHT22;4301;48.362;8.478;2023-04-01T16:43:26;7.70;99.90
8527;DHT22;4301;48.362;8.478;2023-04-01T16:46:14;7.80;99.90
8527;DHT22;4301;48.362;8.478;2023-04-01T16:48:52;7.80;93.00
8527;DHT22;4301;48.362;8.478;2023-04-01T16:51:23;7.70;99.90
8527;DHT22;4301;48.362;8.478;2023-04-01T16:54:02;7.70;99.90
8527;DHT22;4301;48.362;8.478;2023-04-01T16:56:39;7.70;99.90
8527;DHT22;4301;48.362;8.478;2023-04-01T16:59:15;7.60;99.90
8527;DHT22;4301;48.362;8.478;2023-04-01T17:01:49;7.60;99.90
8527;DHT22;4301;48.362;8.478;2023-04-01T17:04:29;7.60;99.90
8527;DHT22;4301;48.362;8.478;2023-04-01T17:07:05;7.50;99.90
8527;DHT22;4301;48.362;8.478;2023-04-01T17:09:50;7.50;99.90
8527;DHT22;4301;48.362;8.478;2023-04-01T17:12:23;7.40;99.90
8527;DHT22;4301;48.362;8.478;2023-04-01T17:14:57;7.40;99.90
8527;DHT22;4301;48.362;8.478;2023-04-01T17:17:32;7.30;99.90
8527;DHT22;4301;48.362;8.478;2023-04-01T17:22:54;7.30;99.90
8527;DHT22;4301;48.362;8.478;2023-04-01T17:25:40;7.20;99.90
8527;DHT22;4301;48.362;8.478;2023-04-01T17:28:18;7.20;99.90
8527;DHT22;4301;48.362;8.478;2023-04-01T17:30:53;7.10;99.90
8527;DHT22;4301;48.362;8.478;2023-04-01T17:33:35;7.10;99.90
8527;DHT22;4301;48.362;8.478;2023-04-01T17:36:12;7.10;99.90
8527;DHT22;4301;48.362;8.478;2023-04-01T17:39:03;7.10;99.90
8527;DHT22;4301;48.362;8.478;2023-04-01T17:41:43;7.00;99.90
8527;DHT22;4301;48.362;8.478;2023-04-01T17:44:22;7.10;99.90
8527;DHT22;4301;48.362;8.478;2023-04-01T17:50:00;6.90;99.90
8527;DHT22;4301;48.362;8.478;2023-04-01T17:52:31;6.90;99.90
8527;DHT22;4301;48.362;8.478;2023-04-01T17:55:32;6.90;99.90
8527;DHT22;4301;48.362;8.478;2023-04-01T17:58:10;6.90;99.90
8527;DHT22;4301;48.362;8.478;2023-04-01T18:00:54;6.90;99.90
8527;DHT22;4301;48.362;8.478;2023-04-01T18:06:32;6.90;99.90
8527;DHT22;4301;48.362;8.478;2023-04-01T18:09:05;6.90;99.90
8527;DHT22;4301;48.362;8.478;2023-04-01T18:11:48;6.90;99.90
8527;DHT22;4301;48.362;8.478;2023-04-01T18:14:47;6.80;99.90
8527;DHT22;4301;48.362;8.478;2023-04-01T18:17:23;6.70;99.90
8527;DHT22;4301;48.362;8.478;2023-04-01T18:20:17;6.70;99.90
8527;DHT22;4301;48.362;8.478;2023-04-01T18:22:53;6.60;99.90
8527;DHT22;4301;48.362;8.478;2023-04-01T18:25:24;6.60;99.90
8527;DHT22;4301;48.362;8.478;2023-04-01T18:28:00;6.60;99.90
8527;DHT22;4301;48.362;8.478;2023-04-01T18:30:34;6.60;99.90
8527;DHT22;4301;48.362;8.478;2023-04-01T18:33:05;6.50;99.90
8527;DHT22;4301;48.362;8.478;2023-04-01T18:35:49;6.60;99.90
8527;DHT22;4301;48.362;8.478;2023-04-01T18:38:20;6.50;99.90
8527;DHT22;4301;48.362;8.478;2023-04-01T18:41:07;6.50;99.90
8527;DHT22;4301;48.362;8.478;2023-04-01T18:43:42;6.50;99.90
8527;DHT22;4301;48.362;8.478;2023-04-01T18:46:19;6.50;99.90
8527;DHT22;4301;48.362;8.478;2023-04-01T18:48:52;6.50;99.90
8527;DHT22;4301;48.362;8.478;2023-04-01T18:51:26;6.50;99.90
8527;DHT22;4301;48.362;8.478;2023-04-01T18:54:02;6.50;99.90
8527;DHT22;4301;48.362;8.478;2023-04-01T18:56:34;6.50;99.90